createdAt,value
2023-01-31T00:00:27.993Z,95.06
2023-01-31T00:02:55.259Z,95.04
2023-01-31T00:05:22.512Z,94.73
2023-01-31T00:07:49.333Z,94.94
2023-01-31T00:10:16.561Z,94.81
2023-01-31T00:12:43.336Z,94.97
2023-01-31T00:15:10.549Z,94.50
2023-01-31T00:17:37.412Z,94.57
2023-01-31T00:20:04.733Z,94.67
2023-01-31T00:22:31.517Z,94.72
2023-01-31T00:24:58.263Z,94.67
2023-01-31T00:27:25.060Z,94.69
2023-01-31T00:29:51.800Z,94.38
2023-01-31T00:32:18.880Z,94.58
2023-01-31T00:34:45.703Z,94.29
2023-01-31T00:37:12.617Z,94.40
2023-01-31T00:39:39.384Z,94.32
2023-01-31T00:42:06.163Z,94.11
2023-01-31T00:44:32.950Z,94.12
2023-01-31T00:46:59.732Z,94.15
2023-01-31T00:49:26.615Z,94.02
2023-01-31T00:51:53.512Z,93.96
2023-01-31T00:54:20.303Z,93.69
2023-01-31T00:56:47.278Z,93.97
2023-01-31T00:59:14.043Z,94.11
2023-01-31T01:01:41.296Z,94.04
2023-01-31T01:04:08.138Z,94.34
2023-01-31T01:06:35.744Z,94.56
2023-01-31T01:09:02.904Z,94.45
2023-01-31T01:11:32.337Z,94.65
2023-01-31T01:14:01.063Z,94.71
2023-01-31T01:16:36.824Z,94.50
2023-01-31T01:19:12.549Z,94.69
2023-01-31T01:21:40.885Z,94.81
2023-01-31T01:24:14.111Z,94.99
2023-01-31T01:26:41.704Z,95.27
2023-01-31T01:29:09.041Z,94.95
2023-01-31T01:31:37.849Z,94.74
2023-01-31T01:34:08.321Z,94.99
2023-01-31T01:36:36.683Z,95.15
2023-01-31T01:39:07.488Z,95.19
2023-01-31T01:41:34.323Z,95.77
2023-01-31T01:44:04.353Z,95.97
2023-01-31T01:46:42.762Z,96.59
2023-01-31T01:49:18.765Z,96.86
2023-01-31T01:51:49.441Z,96.82
2023-01-31T01:54:22.776Z,97.56
2023-01-31T01:56:58.969Z,97.17
2023-01-31T01:59:34.077Z,97.10
2023-01-31T02:02:02.267Z,97.55
2023-01-31T02:04:37.823Z,97.00
2023-01-31T02:07:05.522Z,96.92
2023-01-31T02:10:05.879Z,97.20
2023-01-31T02:12:34.494Z,97.37
2023-01-31T02:15:01.638Z,97.26
2023-01-31T02:17:29.364Z,97.32
2023-01-31T02:20:08.846Z,97.49
2023-01-31T02:23:24.911Z,97.69
2023-01-31T02:26:10.084Z,98.16
2023-01-31T02:29:33.538Z,98.22
2023-01-31T02:32:34.591Z,97.87
2023-01-31T02:35:41.820Z,97.78
2023-01-31T02:38:35.844Z,97.79
2023-01-31T02:41:11.713Z,97.84
2023-01-31T02:44:22.442Z,97.90
2023-01-31T02:47:14.152Z,98.51
2023-01-31T02:49:56.293Z,98.39
2023-01-31T02:52:43.504Z,98.04
2023-01-31T02:55:36.838Z,98.18
2023-01-31T02:58:09.193Z,98.41
2023-01-31T03:00:39.422Z,98.28
2023-01-31T03:03:20.275Z,98.53
2023-01-31T03:06:23.723Z,98.50
2023-01-31T03:09:25.181Z,98.67
2023-01-31T03:12:10.556Z,98.51
2023-01-31T03:14:52.574Z,98.78
2023-01-31T03:17:53.190Z,98.52
2023-01-31T03:20:38.293Z,98.99
2023-01-31T03:23:11.728Z,98.74
2023-01-31T03:25:39.691Z,98.81
2023-01-31T03:28:14.017Z,98.64
2023-01-31T03:31:00.428Z,98.74
2023-01-31T03:33:33.899Z,98.81
2023-01-31T03:36:23.880Z,99.25
2023-01-31T03:39:06.047Z,99.29
2023-01-31T03:42:08.067Z,99.54
2023-01-31T03:45:18.112Z,99.52
2023-01-31T03:47:49.375Z,99.70
2023-01-31T03:50:43.038Z,99.70
2023-01-31T03:53:29.308Z,99.64
2023-01-31T03:56:07.326Z,99.43
2023-01-31T03:58:41.637Z,100.00
2023-01-31T04:01:11.342Z,99.63
2023-01-31T04:03:49.289Z,99.91
2023-01-31T04:06:17.238Z,100.00
2023-01-31T04:08:44.106Z,100.00
2023-01-31T04:11:14.936Z,100.00
2023-01-31T04:13:43.078Z,100.00
2023-01-31T04:16:09.893Z,100.00
2023-01-31T04:18:38.609Z,100.00
2023-01-31T04:21:05.916Z,100.00
2023-01-31T04:23:33.287Z,100.00
2023-01-31T04:26:00.239Z,100.00
2023-01-31T04:28:27.110Z,100.00
2023-01-31T04:30:57.918Z,100.00
2023-01-31T04:33:24.884Z,100.00
2023-01-31T04:35:52.404Z,100.00
2023-01-31T04:38:19.508Z,100.00
2023-01-31T04:40:46.330Z,100.00
2023-01-31T04:43:13.538Z,100.00
2023-01-31T04:45:40.310Z,100.00
2023-01-31T04:48:07.771Z,100.00
2023-01-31T04:50:35.035Z,100.00
2023-01-31T04:53:01.978Z,100.00
2023-01-31T04:55:29.142Z,100.00
2023-01-31T04:57:55.906Z,100.00
2023-01-31T05:00:22.999Z,100.00
2023-01-31T05:02:50.516Z,100.00
2023-01-31T05:05:17.714Z,100.00
2023-01-31T05:07:45.463Z,100.00
2023-01-31T05:10:12.961Z,100.00
2023-01-31T05:12:40.299Z,100.00
2023-01-31T05:15:07.946Z,100.00
2023-01-31T05:17:34.918Z,100.00
2023-01-31T05:20:01.688Z,100.00
2023-01-31T05:22:28.499Z,100.00
2023-01-31T05:24:57.472Z,100.00
2023-01-31T05:27:25.675Z,100.00
2023-01-31T05:29:52.899Z,100.00
2023-01-31T05:32:20.047Z,100.00
2023-01-31T05:34:46.836Z,100.00
2023-01-31T05:37:13.655Z,100.00
2023-01-31T05:39:40.648Z,100.00
2023-01-31T05:42:07.433Z,100.00
2023-01-31T05:44:34.494Z,100.00
2023-01-31T05:47:01.522Z,100.00
2023-01-31T05:49:33.521Z,100.00
2023-01-31T05:52:01.900Z,100.00
2023-01-31T05:54:29.151Z,100.00
2023-01-31T05:56:56.105Z,100.00
2023-01-31T05:59:23.238Z,100.00
2023-01-31T06:01:50.105Z,100.00
2023-01-31T06:04:17.233Z,100.00
2023-01-31T06:06:45.543Z,100.00
2023-01-31T06:09:12.359Z,100.00
2023-01-31T06:11:39.205Z,100.00
2023-01-31T06:14:06.826Z,100.00
2023-01-31T06:16:33.888Z,100.00
2023-01-31T06:19:02.013Z,100.00
2023-01-31T06:21:29.366Z,100.00
2023-01-31T06:23:56.377Z,100.00
2023-01-31T06:26:24.502Z,100.00
2023-01-31T06:28:51.552Z,100.00
2023-01-31T06:31:19.246Z,100.00
2023-01-31T06:33:48.022Z,100.00
2023-01-31T06:36:18.904Z,100.00
2023-01-31T06:38:51.014Z,100.00
2023-01-31T06:41:19.520Z,100.00
2023-01-31T06:43:46.343Z,100.00
2023-01-31T06:46:13.170Z,100.00
2023-01-31T06:48:40.377Z,100.00
2023-01-31T06:51:07.252Z,100.00
2023-01-31T06:53:34.085Z,100.00
2023-01-31T06:56:01.193Z,100.00
2023-01-31T06:58:28.436Z,100.00
2023-01-31T07:00:55.237Z,100.00
2023-01-31T07:03:22.077Z,100.00
2023-01-31T07:05:48.908Z,100.00
2023-01-31T07:08:16.117Z,100.00
2023-01-31T07:10:43.006Z,100.00
2023-01-31T07:13:09.835Z,100.00
2023-01-31T07:15:36.655Z,100.00
2023-01-31T07:18:03.485Z,100.00
2023-01-31T07:20:30.427Z,100.00
2023-01-31T07:22:58.551Z,100.00
2023-01-31T07:25:27.334Z,100.00
2023-01-31T07:27:54.142Z,100.00
2023-01-31T07:30:21.099Z,100.00
2023-01-31T07:32:47.920Z,100.00
2023-01-31T07:35:14.711Z,100.00
2023-01-31T07:37:43.638Z,100.00
2023-01-31T07:40:15.445Z,100.00
2023-01-31T07:42:42.632Z,100.00
2023-01-31T07:45:23.371Z,100.00
2023-01-31T07:47:51.600Z,100.00
2023-01-31T07:50:20.024Z,100.00
2023-01-31T07:52:49.420Z,100.00
2023-01-31T07:55:16.381Z,100.00
2023-01-31T07:57:43.167Z,100.00
2023-01-31T08:00:31.062Z,100.00
2023-01-31T08:03:16.358Z,100.00
2023-01-31T08:05:47.687Z,100.00
2023-01-31T08:08:14.803Z,100.00
2023-01-31T08:10:41.899Z,100.00
2023-01-31T08:13:11.193Z,100.00
2023-01-31T08:15:37.972Z,100.00
2023-01-31T08:18:06.414Z,100.00
2023-01-31T08:20:33.935Z,100.00
2023-01-31T08:23:00.720Z,100.00
2023-01-31T08:25:32.250Z,100.00
2023-01-31T08:28:00.533Z,100.00
2023-01-31T08:30:28.449Z,100.00
2023-01-31T08:32:56.489Z,100.00
2023-01-31T08:35:23.294Z,100.00
2023-01-31T08:37:50.063Z,100.00
2023-01-31T08:40:17.872Z,100.00
2023-01-31T08:42:44.640Z,100.00
2023-01-31T08:45:11.661Z,100.00
2023-01-31T08:47:39.050Z,100.00
2023-01-31T08:50:13.140Z,100.00
2023-01-31T08:52:54.262Z,100.00
2023-01-31T08:55:22.751Z,100.00
2023-01-31T08:57:59.419Z,100.00
2023-01-31T09:00:28.922Z,100.00
2023-01-31T09:03:00.779Z,100.00
2023-01-31T09:05:31.118Z,100.00
2023-01-31T09:07:58.004Z,100.00
2023-01-31T09:10:24.959Z,100.00
2023-01-31T09:12:51.828Z,100.00
2023-01-31T09:15:19.201Z,100.00
2023-01-31T09:17:46.193Z,100.00
2023-01-31T09:20:13.106Z,98.46
2023-01-31T09:22:40.107Z,94.31
2023-01-31T09:25:08.541Z,92.05
2023-01-31T09:27:38.624Z,88.71
2023-01-31T09:30:08.305Z,82.65
2023-01-31T09:32:35.697Z,81.26
2023-01-31T09:35:02.701Z,79.74
2023-01-31T09:37:31.304Z,79.97
2023-01-31T09:39:58.367Z,79.17
2023-01-31T09:42:33.520Z,79.32
2023-01-31T09:45:12.584Z,78.93
2023-01-31T09:47:48.507Z,78.86
2023-01-31T09:50:33.658Z,78.95
2023-01-31T09:53:00.762Z,79.22
2023-01-31T09:55:36.529Z,80.05
2023-01-31T09:58:19.664Z,78.88
2023-01-31T10:01:01.717Z,79.44
2023-01-31T10:03:55.949Z,79.42
2023-01-31T10:06:30.711Z,78.76
2023-01-31T10:09:36.022Z,76.80
2023-01-31T10:12:18.861Z,77.44
2023-01-31T10:14:58.007Z,75.88
2023-01-31T10:17:42.380Z,75.73
2023-01-31T10:20:21.710Z,75.84
2023-01-31T10:23:07.494Z,74.18
2023-01-31T10:25:46.683Z,75.07
2023-01-31T10:28:43.795Z,74.38
2023-01-31T10:32:05.851Z,73.38
2023-01-31T10:34:39.476Z,72.35
2023-01-31T10:37:19.307Z,72.79
2023-01-31T10:39:54.315Z,72.54
2023-01-31T10:42:33.439Z,71.74
2023-01-31T10:45:09.153Z,71.79
2023-01-31T10:48:16.234Z,71.06
2023-01-31T10:51:01.074Z,70.63
2023-01-31T10:53:58.343Z,70.90
2023-01-31T10:57:03.388Z,70.46
2023-01-31T10:59:45.244Z,69.32
2023-01-31T11:02:19.369Z,68.99
2023-01-31T11:04:46.173Z,69.16
2023-01-31T11:07:13.440Z,70.10
2023-01-31T11:09:44.107Z,69.17
2023-01-31T11:12:11.030Z,69.14
2023-01-31T11:14:37.885Z,69.55
2023-01-31T11:17:24.781Z,69.06
2023-01-31T11:19:55.278Z,69.72
2023-01-31T11:22:27.855Z,69.14
2023-01-31T11:24:56.459Z,69.47
2023-01-31T11:27:33.779Z,69.53
2023-01-31T11:30:00.860Z,69.17
2023-01-31T11:32:35.967Z,68.92
2023-01-31T11:35:13.428Z,68.97
2023-01-31T11:38:02.648Z,69.25
2023-01-31T11:40:36.158Z,68.63
2023-01-31T11:43:07.549Z,68.10
2023-01-31T11:45:39.266Z,68.31
2023-01-31T11:48:22.044Z,68.74
2023-01-31T11:51:03.169Z,69.34
2023-01-31T11:53:55.005Z,69.65
2023-01-31T11:56:31.761Z,70.59
2023-01-31T11:59:04.313Z,71.45
2023-01-31T12:01:31.334Z,71.82
2023-01-31T12:04:04.334Z,71.60
2023-01-31T12:06:40.460Z,72.44
2023-01-31T12:09:23.951Z,71.89
2023-01-31T12:12:07.708Z,70.56
2023-01-31T12:14:41.604Z,68.61
2023-01-31T12:17:16.042Z,68.18
2023-01-31T12:20:30.425Z,67.99
2023-01-31T12:23:23.403Z,65.96
2023-01-31T12:26:04.639Z,64.36
2023-01-31T12:29:16.009Z,63.53
2023-01-31T12:32:10.061Z,62.86
2023-01-31T12:35:21.027Z,63.42
2023-01-31T12:38:13.490Z,61.70
2023-01-31T12:41:21.720Z,61.88
2023-01-31T12:44:17.969Z,60.37
2023-01-31T12:47:29.559Z,61.60
2023-01-31T12:50:42.964Z,61.36
2023-01-31T12:53:51.508Z,62.11
2023-01-31T12:56:24.673Z,62.54
2023-01-31T12:59:16.286Z,61.38
2023-01-31T13:02:03.661Z,60.67
2023-01-31T13:04:45.771Z,60.45
2023-01-31T13:07:43.681Z,61.17
2023-01-31T13:10:45.439Z,58.71
2023-01-31T13:13:25.133Z,57.73
2023-01-31T13:16:00.107Z,57.53
2023-01-31T13:18:27.501Z,57.83
2023-01-31T13:21:02.613Z,58.27
2023-01-31T13:23:44.444Z,58.56
2023-01-31T13:26:26.868Z,58.39
2023-01-31T13:29:00.976Z,56.99
2023-01-31T13:31:36.293Z,57.75
2023-01-31T13:34:29.472Z,57.45
2023-01-31T13:37:04.897Z,58.13
2023-01-31T13:39:43.842Z,57.46
2023-01-31T13:42:15.698Z,58.26
2023-01-31T13:44:44.036Z,59.04
2023-01-31T13:47:39.495Z,58.65
2023-01-31T13:50:28.165Z,58.12
2023-01-31T13:52:57.615Z,58.84
2023-01-31T13:55:36.871Z,59.45
2023-01-31T13:58:17.908Z,59.16
2023-01-31T14:00:51.101Z,59.46
2023-01-31T14:03:20.886Z,59.68
2023-01-31T14:05:55.623Z,59.43
2023-01-31T14:08:37.564Z,59.83
2023-01-31T14:11:25.485Z,60.38
2023-01-31T14:14:12.655Z,58.75
2023-01-31T14:16:46.121Z,60.30
2023-01-31T14:19:19.051Z,60.25
2023-01-31T14:21:50.801Z,60.51
2023-01-31T14:24:53.322Z,60.63
2023-01-31T14:27:33.682Z,60.88
2023-01-31T14:30:06.355Z,61.23
2023-01-31T14:32:42.157Z,61.69
2023-01-31T14:35:14.786Z,62.15
2023-01-31T14:38:15.377Z,61.86
2023-01-31T14:41:18.990Z,62.53
2023-01-31T14:44:06.969Z,62.75
2023-01-31T14:47:07.748Z,62.54
2023-01-31T14:49:43.653Z,62.92
2023-01-31T14:52:42.708Z,63.10
2023-01-31T14:55:35.669Z,61.80
2023-01-31T14:58:05.587Z,61.67
2023-01-31T15:00:37.173Z,62.17
2023-01-31T15:03:19.362Z,61.96
2023-01-31T15:05:52.049Z,61.21
2023-01-31T15:08:19.913Z,60.19
2023-01-31T15:11:03.384Z,58.44
2023-01-31T15:13:39.665Z,58.89
2023-01-31T15:16:24.316Z,58.41
2023-01-31T15:19:19.460Z,58.64
2023-01-31T15:21:55.659Z,59.66
2023-01-31T15:24:32.211Z,60.07
2023-01-31T15:27:01.483Z,60.47
2023-01-31T15:29:37.327Z,61.02
2023-01-31T15:32:24.318Z,61.57
2023-01-31T15:35:07.951Z,61.30
2023-01-31T15:37:37.064Z,61.76
2023-01-31T15:40:21.135Z,61.71
2023-01-31T15:42:48.033Z,62.00
2023-01-31T15:45:17.868Z,62.22
2023-01-31T15:48:00.088Z,62.23
2023-01-31T15:50:30.932Z,62.60
2023-01-31T15:53:04.143Z,63.54
2023-01-31T15:55:32.048Z,63.58
2023-01-31T15:58:02.292Z,63.81
2023-01-31T16:00:37.079Z,63.30
2023-01-31T16:03:08.075Z,63.10
2023-01-31T16:05:40.054Z,62.82
2023-01-31T16:08:21.980Z,62.92
2023-01-31T16:10:49.889Z,62.50
2023-01-31T16:13:17.416Z,62.30
2023-01-31T16:15:44.502Z,62.57
2023-01-31T16:18:13.229Z,62.76
2023-01-31T16:20:41.598Z,62.78
2023-01-31T16:23:33.824Z,62.80
2023-01-31T16:26:09.188Z,62.85
2023-01-31T16:28:45.281Z,63.78
2023-01-31T16:31:18.618Z,64.00
2023-01-31T16:33:53.533Z,64.17
2023-01-31T16:36:30.754Z,64.62
2023-01-31T16:39:05.051Z,64.90
2023-01-31T16:41:53.300Z,65.15
2023-01-31T16:44:23.130Z,65.21
2023-01-31T16:46:51.323Z,66.03
2023-01-31T16:49:20.918Z,66.43
2023-01-31T16:51:49.667Z,66.68
2023-01-31T16:54:28.528Z,67.10
2023-01-31T16:57:01.476Z,67.34
2023-01-31T16:59:34.693Z,67.74
2023-01-31T17:02:18.591Z,67.57
2023-01-31T17:04:48.127Z,67.64
2023-01-31T17:07:31.754Z,67.71
2023-01-31T17:10:04.245Z,67.66
2023-01-31T17:12:35.186Z,67.73
2023-01-31T17:15:04.009Z,68.01
2023-01-31T17:17:35.240Z,68.05
2023-01-31T17:20:02.038Z,68.38
2023-01-31T17:22:29.069Z,68.30
2023-01-31T17:24:55.972Z,68.53
2023-01-31T17:27:23.234Z,68.57
2023-01-31T17:29:50.410Z,68.58
2023-01-31T17:32:20.872Z,68.85
2023-01-31T17:34:51.000Z,69.04
2023-01-31T17:37:23.590Z,69.27
2023-01-31T17:39:57.256Z,69.58
2023-01-31T17:42:24.069Z,70.29
2023-01-31T17:44:50.878Z,70.56
2023-01-31T17:47:17.996Z,70.61
2023-01-31T17:49:45.339Z,70.79
2023-01-31T17:52:12.452Z,71.66
2023-01-31T17:54:39.284Z,71.64
2023-01-31T17:57:06.108Z,72.37
2023-01-31T17:59:33.068Z,72.55
2023-01-31T18:02:00.733Z,72.78
2023-01-31T18:04:27.617Z,73.21
2023-01-31T18:06:56.312Z,73.04
2023-01-31T18:09:23.140Z,73.46
2023-01-31T18:11:49.913Z,73.35
2023-01-31T18:14:16.953Z,73.28
2023-01-31T18:16:43.766Z,73.55
2023-01-31T18:19:12.100Z,73.61
2023-01-31T18:21:43.970Z,73.33
2023-01-31T18:24:13.880Z,73.32
2023-01-31T18:26:40.781Z,73.00
2023-01-31T18:29:07.710Z,73.13
2023-01-31T18:31:34.664Z,72.76
2023-01-31T18:34:01.496Z,72.83
2023-01-31T18:36:28.308Z,72.08
2023-01-31T18:38:55.253Z,71.97
2023-01-31T18:41:22.118Z,71.84
2023-01-31T18:43:49.661Z,71.82
2023-01-31T18:46:17.386Z,72.02
2023-01-31T18:48:44.253Z,72.35
2023-01-31T18:51:13.783Z,72.59
2023-01-31T18:53:49.603Z,72.91
2023-01-31T18:56:19.749Z,73.24
2023-01-31T18:58:49.450Z,73.29
2023-01-31T19:01:20.740Z,73.86
2023-01-31T19:03:50.379Z,74.41
2023-01-31T19:06:24.354Z,74.73
2023-01-31T19:08:53.395Z,75.01
2023-01-31T19:11:24.460Z,75.32
2023-01-31T19:13:52.236Z,75.74
2023-01-31T19:16:25.013Z,76.34
2023-01-31T19:18:52.168Z,76.57
2023-01-31T19:21:26.135Z,77.12
2023-01-31T19:23:57.278Z,77.50
2023-01-31T19:26:24.777Z,77.95
2023-01-31T19:28:52.123Z,78.10
2023-01-31T19:31:22.458Z,78.77
2023-01-31T19:33:51.803Z,78.79
2023-01-31T19:36:23.879Z,79.32
2023-01-31T19:38:51.459Z,79.31
2023-01-31T19:41:22.237Z,79.62
2023-01-31T19:43:55.128Z,79.67
2023-01-31T19:46:25.140Z,80.12
2023-01-31T19:48:51.953Z,80.08
2023-01-31T19:51:20.948Z,80.09
2023-01-31T19:53:49.168Z,80.18
2023-01-31T19:56:17.117Z,80.33
2023-01-31T19:58:44.169Z,80.70
2023-01-31T20:01:16.170Z,80.41
2023-01-31T20:03:44.148Z,80.57
2023-01-31T20:06:15.101Z,81.06
2023-01-31T20:08:42.413Z,80.94
2023-01-31T20:11:11.467Z,81.03
2023-01-31T20:13:38.534Z,81.43
2023-01-31T20:16:11.993Z,81.69
2023-01-31T20:18:41.180Z,82.05
2023-01-31T20:21:14.519Z,82.55
2023-01-31T20:23:41.810Z,82.92
2023-01-31T20:26:11.764Z,82.99
2023-01-31T20:28:39.998Z,83.36
2023-01-31T20:31:10.725Z,83.52
2023-01-31T20:33:38.651Z,83.53
2023-01-31T20:36:06.483Z,83.98
2023-01-31T20:38:33.629Z,84.35
2023-01-31T20:41:00.779Z,84.89
2023-01-31T20:43:27.623Z,84.92
2023-01-31T20:46:03.520Z,85.05
2023-01-31T20:48:30.344Z,85.58
2023-01-31T20:50:58.481Z,86.65
2023-01-31T20:53:28.344Z,86.52
2023-01-31T20:56:05.959Z,86.59
2023-01-31T20:58:35.960Z,86.96
2023-01-31T21:01:06.227Z,86.79
2023-01-31T21:03:34.305Z,86.90
2023-01-31T21:06:02.560Z,87.01
2023-01-31T21:08:31.721Z,87.16
2023-01-31T21:10:59.601Z,87.07
2023-01-31T21:13:31.770Z,87.03
2023-01-31T21:16:03.496Z,87.28
2023-01-31T21:18:34.759Z,86.96
2023-01-31T21:21:09.240Z,87.11
2023-01-31T21:23:37.848Z,87.49
2023-01-31T21:26:07.483Z,87.76
2023-01-31T21:28:35.475Z,87.89
2023-01-31T21:31:06.514Z,88.02
2023-01-31T21:33:33.722Z,88.01
2023-01-31T21:36:08.799Z,87.66
2023-01-31T21:38:35.949Z,87.33
2023-01-31T21:41:21.918Z,87.14
2023-01-31T21:43:48.690Z,87.18
2023-01-31T21:46:15.649Z,87.07
2023-01-31T21:48:42.796Z,87.45
2023-01-31T21:51:15.555Z,87.46
2023-01-31T21:53:42.862Z,87.62
2023-01-31T21:56:19.342Z,87.93
2023-01-31T21:58:46.741Z,88.17
2023-01-31T22:01:21.035Z,89.83
2023-01-31T22:03:50.398Z,90.32
2023-01-31T22:06:22.799Z,89.77
2023-01-31T22:08:55.748Z,90.05
2023-01-31T22:11:23.625Z,89.87
2023-01-31T22:13:55.550Z,89.44
2023-01-31T22:16:23.212Z,89.41
2023-01-31T22:18:50.266Z,89.63
2023-01-31T22:21:25.007Z,89.45
2023-01-31T22:23:55.565Z,89.03
2023-01-31T22:26:35.985Z,88.75
2023-01-31T22:29:06.713Z,88.87
2023-01-31T22:31:34.275Z,88.55
2023-01-31T22:34:02.404Z,88.13
2023-01-31T22:36:29.567Z,88.03
2023-01-31T22:38:56.384Z,87.87
2023-01-31T22:41:23.687Z,87.77
2023-01-31T22:43:51.960Z,87.86
2023-01-31T22:46:23.531Z,88.23
2023-01-31T22:48:51.382Z,88.52
2023-01-31T22:51:24.878Z,88.93
2023-01-31T22:53:51.768Z,89.61
2023-01-31T22:56:22.128Z,89.51
2023-01-31T22:58:49.440Z,89.44
2023-01-31T23:01:19.877Z,88.88
2023-01-31T23:03:47.797Z,88.39
2023-01-31T23:06:17.180Z,88.20
2023-01-31T23:08:45.330Z,87.58
2023-01-31T23:11:15.747Z,87.38
2023-01-31T23:13:43.835Z,86.97
2023-01-31T23:16:19.855Z,86.91
2023-01-31T23:18:47.330Z,86.60
2023-01-31T23:21:19.159Z,86.46
2023-01-31T23:23:46.609Z,86.31
2023-01-31T23:26:14.065Z,86.36
2023-01-31T23:28:41.129Z,85.89
2023-01-31T23:31:08.585Z,85.74
2023-01-31T23:33:35.615Z,85.73
2023-01-31T23:36:02.826Z,85.60
2023-01-31T23:38:29.630Z,85.52
2023-01-31T23:40:56.480Z,84.83
2023-01-31T23:43:23.906Z,84.82
2023-01-31T23:45:50.770Z,84.84
2023-01-31T23:48:18.161Z,84.55
2023-01-31T23:50:45.072Z,84.55
2023-01-31T23:53:11.866Z,84.67
2023-01-31T23:55:38.672Z,84.48
2023-01-31T23:58:05.729Z,84.47
